Current | Forecast
Updated: 9:44 AM JST on May 28, 2017
Observed at Chitose AB, Japan
Temperature 52°F
Humidity 100%
Dew Point 52°F
Wind South at 12 mph
Pressure 29.77 in (Steady)
Conditions Mostly Cloudy
Visibility 5.0 miles
UV 4 out of 16
Clouds (FEW) : 400 ft
Mostly Cloudy (BKN) : 500 ft
Mostly Cloudy (BKN) : 1000 ft
Yesterday's Maximum 59°F
Yesterday's Minimum 50°F approx.
Yesterday's Heating Degree Days 11 approx.
Sunrise4:04 AM JST
Sunset7:04 PM JST
Moon Rise6:26 AM JST
Moon Set9:31 PM JST
Moon PhaseMoon Phase
Waxing Crescent
Raw METARSPECI RJCC 280044Z 17010KT 8000 FEW004 BKN005 BKN010 11/11 Q1008 RMK 2ST004 5ST005 7ST010 A2979


Monday
. High: 62° F.
Tuesday
. High: 57° F.
Wednesday
. High: 59° F.
Thursday
. High: 64° F.
Friday
. High: 60° F.
Saturday
. High: 55° F.
Sunday
. High: 60° F.
Monday
. High: 55° F.

Units: English | Metric

Find the Weather for any City, State or Zipcode, or Country:

U.S. State List | Severe Weather | Tropical Storms | Ski Conditions
United States | Canada | Central America | South America | Asia | Europe | Australia | Africa | Islands

Weather Underground

© Copyright 2017
The Weather Company, LLC